Kristy Dutsch — WDC9005 — position and weather

sailwx.info

Track history (hours):
 
Tides and Currents Weather Stations Pressure Air Temp Water Temp Dewpoint Dewpoint Depression Visibility Wind Speed Wind Dir Waves Ship Positions

Kristy Dutsch

Owner: Florida Marine, LLC, Mandeville, LA. More information available from US FCC via Universal Licensing System and Coast Guard Vessel Documentation Center.

Last reported at 2018-Jun-19 12:30 UTC. Time now 2018-Jun-19 12:46 UTC.
Position N 30°06' W 093°18'.

Length 26 m; draft 2.8 m.

Type: Other ship. MMSI: 367096290.

Date/timePositionNaut miles runAvg speedWind from/ knotsBaromVisibWave heightAir tempDewpointWater temp
2018-Jun-19 12:30N 30°06' W 093°18'0 0.0
2018-Jun-19 12:00N 30°06' W 093°18'0 0.1
2018-Jun-19 11:30N 30°06' W 093°18'1 1.7
2018-Jun-19 11:00N 30°06' W 093°19'2 4.6
2018-Jun-19 10:30N 30°04' W 093°21'2 4.5
2018-Jun-19 10:00N 30°04' W 093°23'1 2.8
2018-Jun-19 09:30N 30°04' W 093°25'0 0.1
2018-Jun-19 09:00N 30°04' W 093°25'0 0.0
2018-Jun-19 08:30N 30°04' W 093°25'0 0.0
2018-Jun-19 08:00N 30°04' W 093°25'0 0.0
2018-Jun-19 07:30N 30°04' W 093°25'0 0.0
2018-Jun-19 07:00N 30°04' W 093°25'0 0.0
2018-Jun-19 06:30N 30°04' W 093°25'0 0.0
2018-Jun-19 06:00N 30°04' W 093°25'0 0.0
2018-Jun-19 05:30N 30°04' W 093°25'0 0.0
2018-Jun-19 05:00N 30°04' W 093°25'0 0.0
2018-Jun-19 04:30N 30°04' W 093°25'0 0.0
2018-Jun-19 04:00N 30°04' W 093°25'0 0.1
2018-Jun-19 03:30N 30°04' W 093°25'0 0.0
2018-Jun-19 03:00N 30°04' W 093°25'0 0.0
2018-Jun-19 02:30N 30°04' W 093°25'0 0.2
2018-Jun-19 02:00N 30°04' W 093°25'0 0.5
2018-Jun-19 01:30N 30°04' W 093°25'0 0.6
2018-Jun-19 01:00N 30°04' W 093°26'2 3.9
2018-Jun-19 00:30N 30°04' W 093°28'2 4.7
2018-Jun-19 00:00N 30°04' W 093°31'2 4.5
2018-Jun-18 23:29N 30°04' W 093°33'2 4.6
2018-Jun-18 23:00N 30°04' W 093°36'3 5.0
2018-Jun-18 22:30N 30°04' W 093°39'3 5.1
2018-Jun-18 22:00N 30°04' W 093°42'3 5.2
2018-Jun-18 21:30N 30°02' W 093°44'3 5.1
2018-Jun-18 21:00N 30°00' W 093°46'0 0.2
2018-Jun-18 20:30N 30°00' W 093°46'0 0.0
2018-Jun-18 20:00N 30°00' W 093°46'0 0.1
2018-Jun-18 19:30N 30°00' W 093°46'0 0.0
2018-Jun-18 19:01N 30°00' W 093°46'0 0.0
2018-Jun-18 18:30N 30°00' W 093°46'1 2.5
2018-Jun-18 18:00N 29°59' W 093°47'2 3.2
2018-Jun-18 17:31N 29°59' W 093°49'1 1.5
2018-Jun-18 17:00N 29°59' W 093°50'1 2.5
2018-Jun-18 16:30N 29°58' W 093°51'3 6.0
2018-Jun-18 16:00N 29°56' W 093°53'3 5.7
2018-Jun-18 15:30N 29°53' W 093°55'3 6.0
2018-Jun-18 15:00N 29°51' W 093°57'2 4.7
2018-Jun-18 14:30N 29°49' W 093°59'1 1.4
2018-Jun-18 14:00N 29°49' W 093°59'2 3.6
2018-Jun-18 13:30N 29°48' W 094°01'2 4.3
2018-Jun-18 13:00N 29°46' W 094°03'2 4.2
2018-Jun-18 12:30N 29°45' W 094°05'2 4.3
2018-Jun-18 12:00N 29°43' W 094°07'2 4.2
2018-Jun-18 11:30N 29°42' W 094°08'2 4.3
2018-Jun-18 11:00N 29°41' W 094°11'2 4.3
2018-Jun-18 10:30N 29°40' W 094°13'2 4.5
2018-Jun-18 10:00N 29°39' W 094°15'2 4.4
2018-Jun-18 09:27N 29°38' W 094°18'2 4.2
2018-Jun-18 09:00N 29°37' W 094°20'2 3.7
2018-Jun-18 08:30N 29°37' W 094°22'2 3.7
2018-Jun-18 07:58N 29°36' W 094°24'2 3.2
2018-Jun-18 07:28N 29°35' W 094°25'22 2.5
2018-Jun-17 22:41N 29°23' W 094°46'1 6.8
2018-Jun-17 22:30N 29°22' W 094°48'3 5.5
2018-Jun-17 22:00N 29°22' W 094°51'2 3.1
2018-Jun-17 21:17N 29°22' W 094°53'0 0.4
2018-Jun-17 21:00N 29°22' W 094°53'0 0.1
2018-Jun-17 18:58N 29°23' W 094°54'0 0.0
2018-Jun-17 18:28N 29°23' W 094°54'0 0.0
2018-Jun-17 17:58N 29°23' W 094°54'0 0.0
2018-Jun-17 17:29N 29°23' W 094°54'0 0.0
2018-Jun-17 17:00N 29°23' W 094°54'0 0.0
2018-Jun-17 16:27N 29°23' W 094°54'0 0.0
2018-Jun-17 15:59N 29°23' W 094°54'0 0.0
2018-Jun-17 15:27N 29°23' W 094°54'0 0.0
2018-Jun-17 01:30N 29°23' W 094°54'0 0.0
2018-Jun-16 22:54N 29°23' W 094°54'0 0.0
2018-Jun-16 22:29N 29°23' W 094°54'0 0.0
2018-Jun-16 21:59N 29°23' W 094°54'0 0.0
2018-Jun-16 21:27N 29°23' W 094°54'0 0.0
2018-Jun-16 20:57N 29°23' W 094°54'0 0.0
2018-Jun-16 20:26N 29°23' W 094°54'0 0.0
2018-Jun-16 20:00N 29°23' W 094°54'0 0.0
2018-Jun-16 19:29N 29°23' W 094°54'0 0.0
2018-Jun-16 18:12N 29°23' W 094°54'0 0.0
2018-Jun-16 18:00N 29°23' W 094°54'0 0.0
2018-Jun-16 17:11N 29°23' W 094°54'0 0.0
2018-Jun-16 16:53N 29°23' W 094°54'0 0.0
2018-Jun-16 16:12N 29°23' W 094°54'0 0.0
2018-Jun-16 15:57N 29°23' W 094°54'0 0.0
2018-Jun-16 14:17N 29°23' W 094°54'0 0.0
2018-Jun-16 13:51N 29°23' W 094°54'0 0.0
2018-Jun-16 13:27N 29°23' W 094°54'0 0.0
2018-Jun-16 12:53N 29°23' W 094°54'0 0.0
2018-Jun-16 12:27N 29°23' W 094°54'0 0.0
2018-Jun-16 11:53N 29°23' W 094°54'0 0.0
2018-Jun-16 09:02N 29°23' W 094°54'0 0.0
2018-Jun-16 08:06N 29°23' W 094°54'0 0.0
2018-Jun-16 00:23N 29°23' W 094°54'0 1.0
2018-Jun-16 00:00N 29°23' W 094°53'1 1.6
2018-Jun-15 23:30N 29°23' W 094°52'0 0.0
2018-Jun-15 23:00N 29°23' W 094°52'0 0.0
2018-Jun-15 22:21N 29°23' W 094°52'0 0.0
2018-Jun-15 22:00N 29°23' W 094°52'0 0.0
2018-Jun-15 21:30N 29°23' W 094°52'0 0.0
2018-Jun-15 20:53N 29°23' W 094°52'0 0.0
2018-Jun-15 20:30N 29°23' W 094°52'0 0.0
2018-Jun-15 20:00N 29°23' W 094°52'0 0.0
2018-Jun-15 19:30N 29°23' W 094°52'0 0.0
2018-Jun-15 19:00N 29°23' W 094°52'0 0.0
2018-Jun-15 18:30N 29°23' W 094°52'0 0.0
2018-Jun-15 17:57N 29°23' W 094°52'0 0.0
2018-Jun-15 17:30N 29°23' W 094°52'0 0.0
2018-Jun-15 17:00N 29°23' W 094°52'1 2.1
2018-Jun-15 16:28N 29°22' W 094°53'0 0.5
2018-Jun-15 15:56N 29°22' W 094°53'0 0.1
2018-Jun-15 14:59N 29°22' W 094°54'0 0.1
2018-Jun-15 14:30N 29°22' W 094°53'0 0.0
2018-Jun-15 14:00N 29°22' W 094°53'0 0.0
2018-Jun-15 13:30N 29°22' W 094°53'0 0.0
2018-Jun-15 13:00N 29°22' W 094°53'0 0.0
2018-Jun-15 12:30N 29°22' W 094°53'1 2.8
2018-Jun-15 12:00N 29°23' W 094°52'0 0.0
2018-Jun-15 11:30N 29°23' W 094°52'0 0.0
2018-Jun-15 10:58N 29°23' W 094°52'0 0.0
2018-Jun-15 10:30N 29°23' W 094°52'0 0.0
2018-Jun-15 10:00N 29°23' W 094°52'0 0.0
2018-Jun-15 09:30N 29°23' W 094°52'0 0.0
2018-Jun-15 08:58N 29°23' W 094°52'0 0.0
2018-Jun-15 08:29N 29°23' W 094°52'0 0.1
2018-Jun-15 08:00N 29°23' W 094°52'0 0.1
2018-Jun-15 07:28N 29°23' W 094°52'0 0.1
2018-Jun-15 06:54N 29°23' W 094°52'0 0.0
2018-Jun-15 06:29N 29°23' W 094°52'0 0.0
2018-Jun-15 06:00N 29°23' W 094°52'0 0.0
2018-Jun-15 05:30N 29°23' W 094°52'0 0.0
2018-Jun-15 04:59N 29°23' W 094°52'0 0.0
2018-Jun-15 04:30N 29°23' W 094°52'0 0.0
2018-Jun-15 04:00N 29°23' W 094°52'0 0.0
2018-Jun-15 03:30N 29°23' W 094°52'0 0.0
2018-Jun-15 03:00N 29°23' W 094°52'0 0.0
2018-Jun-15 02:29N 29°23' W 094°52'0 0.0
2018-Jun-15 02:00N 29°23' W 094°52'0 0.4
2018-Jun-15 01:30N 29°23' W 094°52'3 6.3
2018-Jun-15 01:00N 29°22' W 094°49'2 4.2
2018-Jun-15 00:24N 29°23' W 094°46'0 0.0
2018-Jun-14 23:12N 29°23' W 094°46'0 0.0
2018-Jun-14 23:00N 29°23' W 094°46'0 0.0
2018-Jun-14 22:29N 29°23' W 094°46'0 0.4
2018-Jun-14 22:00N 29°23' W 094°46'2 2.2
2018-Jun-14 21:14N 29°24' W 094°45'1 5.7
2018-Jun-14 21:00N 29°25' W 094°44'17 6.1
2018-Jun-14 18:13N 29°34' W 094°27'2 5.8
2018-Jun-14 17:57N 29°34' W 094°25'2 4.7
2018-Jun-14 17:31N 29°36' W 094°23'3 5.8
2018-Jun-14 16:59N 29°37' W 094°20'3 6.1
2018-Jun-14 16:28N 29°39' W 094°17'3 6.1
2018-Jun-14 16:00N 29°40' W 094°14'3 6.1
2018-Jun-14 15:30N 29°41' W 094°11'3 5.9
2018-Jun-14 15:01N 29°43' W 094°08'3 6.3
2018-Jun-14 14:30N 29°45' W 094°05'3 6.1
2018-Jun-14 14:00N 29°46' W 094°02'3 6.5
2018-Jun-14 13:30N 29°49' W 093°60'3 5.5
2018-Jun-14 13:00N 29°51' W 093°57'3 6.5
2018-Jun-14 12:30N 29°53' W 093°55'3 6.6
2018-Jun-14 12:00N 29°56' W 093°52'3 5.7
2018-Jun-14 11:30N 29°59' W 093°52'1 2.3
2018-Jun-14 11:00N 29°59' W 093°53'0 0.0
2018-Jun-14 10:30N 29°59' W 093°53'0 0.0
2018-Jun-14 10:00N 29°59' W 093°53'0 0.0
2018-Jun-14 09:30N 29°59' W 093°53'0 0.0
2018-Jun-14 09:00N 29°59' W 093°53'0 0.0
2018-Jun-14 08:30N 29°59' W 093°53'0 0.0
2018-Jun-14 08:00N 29°59' W 093°53'0 0.0
2018-Jun-14 07:30N 29°59' W 093°53'0 0.0
2018-Jun-14 07:00N 29°59' W 093°53'0 0.0
2018-Jun-14 06:30N 29°59' W 093°53'0 0.0
2018-Jun-14 06:00N 29°59' W 093°53'0 0.0
2018-Jun-14 05:30N 29°59' W 093°53'0 0.0
2018-Jun-14 05:00N 29°59' W 093°53'0 0.0
2018-Jun-14 04:30N 29°59' W 093°53'0 0.0
2018-Jun-14 04:00N 29°59' W 093°53'0 0.0
2018-Jun-14 03:30N 29°59' W 093°53'0 0.0
2018-Jun-14 03:00N 29°59' W 093°53'0 0.0
2018-Jun-14 02:30N 29°59' W 093°53'0 0.0
2018-Jun-14 01:59N 29°59' W 093°53'0 0.0
2018-Jun-14 01:30N 29°59' W 093°53'0 0.0
2018-Jun-14 01:00N 29°59' W 093°53'0 0.0
2018-Jun-14 00:30N 29°59' W 093°53'0 0.0
2018-Jun-14 00:00N 29°59' W 093°53'0 0.0
2018-Jun-13 23:30N 29°59' W 093°53'0 0.0
2018-Jun-13 23:00N 29°59' W 093°53'0 0.0
2018-Jun-13 22:30N 29°59' W 093°53'0 0.0
2018-Jun-13 22:00N 29°59' W 093°53'0 0.0
2018-Jun-13 21:30N 29°59' W 093°53'0 0.0
2018-Jun-13 21:00N 29°59' W 093°53'0 0.0
2018-Jun-13 20:30N 29°59' W 093°53'0 0.0
2018-Jun-13 20:00N 29°59' W 093°53'0 0.0
2018-Jun-13 19:30N 29°59' W 093°53'0 0.0
2018-Jun-13 19:00N 29°59' W 093°53'0 0.0
2018-Jun-13 18:30N 29°59' W 093°53'0 0.0
2018-Jun-13 18:00N 29°59' W 093°53'0 0.0
2018-Jun-13 17:31N 29°59' W 093°53'0 0.0
2018-Jun-13 17:00N 29°59' W 093°53'0 0.0
2018-Jun-13 16:30N 29°59' W 093°53'0 0.0
2018-Jun-13 16:00N 29°59' W 093°53'0 0.0
2018-Jun-13 15:30N 29°59' W 093°53'0 0.0
2018-Jun-13 15:00N 29°59' W 093°53'0 0.0
2018-Jun-13 14:30N 29°59' W 093°53'0 0.0
2018-Jun-13 14:00N 29°59' W 093°53'0 0.0
2018-Jun-13 13:30N 29°59' W 093°53'0 0.0
2018-Jun-13 13:00N 29°59' W 093°53'0 0.0
2018-Jun-13 12:30N 29°59' W 093°53'0 0.0
2018-Jun-13 12:00N 29°59' W 093°53'0 0.0
2018-Jun-13 11:30N 29°59' W 093°53'0 0.0
2018-Jun-13 11:00N 29°59' W 093°53'0 0.0
2018-Jun-13 10:30N 29°59' W 093°53'0 0.0
2018-Jun-13 10:00N 29°59' W 093°53'0 0.0
2018-Jun-13 09:30N 29°59' W 093°53'0 0.0
2018-Jun-13 09:00N 29°59' W 093°53'0 0.0
2018-Jun-13 08:30N 29°59' W 093°53'0 0.0
2018-Jun-13 08:00N 29°59' W 093°53'0 0.0
2018-Jun-13 07:30N 29°59' W 093°53'0 0.0
2018-Jun-13 07:00N 29°59' W 093°53'0 0.0
2018-Jun-13 06:30N 29°59' W 093°53'0 0.0
2018-Jun-13 06:00N 29°59' W 093°53'0 0.0
2018-Jun-13 05:30N 29°59' W 093°53'0 0.0
2018-Jun-13 05:00N 29°59' W 093°53'0 0.0
2018-Jun-13 04:30N 29°59' W 093°53'0 0.0
2018-Jun-13 04:00N 29°59' W 093°53'0 0.0
2018-Jun-13 03:30N 29°59' W 093°53'0 0.0
2018-Jun-13 03:00N 29°59' W 093°53'0 0.0
2018-Jun-13 02:30N 29°59' W 093°53'0 0.0
2018-Jun-13 02:00N 29°59' W 093°53'0 0.0
2018-Jun-13 01:30N 29°59' W 093°53'0 1.0
2018-Jun-13 01:00N 29°59' W 093°52'1 2.9
2018-Jun-13 00:30N 29°58' W 093°51'0 0.2
2018-Jun-13 00:00N 29°58' W 093°51'0 0.0
2018-Jun-12 23:30N 29°58' W 093°51'0 0.0
2018-Jun-12 23:00N 29°58' W 093°51'0 0.0
2018-Jun-12 22:30N 29°58' W 093°51'0 0.0
2018-Jun-12 22:00N 29°58' W 093°51'0 0.0
2018-Jun-12 21:30N 29°58' W 093°51'0 0.0
2018-Jun-12 21:00N 29°58' W 093°51'0 0.0
2018-Jun-12 20:30N 29°58' W 093°51'0 0.0
2018-Jun-12 20:00N 29°58' W 093°51'0 0.0
2018-Jun-12 19:30N 29°58' W 093°51'0 0.0
2018-Jun-12 19:00N 29°58' W 093°51'0 0.0
2018-Jun-12 18:30N 29°58' W 093°51'0 0.0
2018-Jun-12 18:00N 29°58' W 093°51'0 0.0
2018-Jun-12 17:30N 29°58' W 093°51'0 0.0
2018-Jun-12 17:00N 29°58' W 093°51'0 0.0
2018-Jun-12 16:30N 29°58' W 093°51'0 0.0
2018-Jun-12 16:00N 29°58' W 093°51'0 0.0
2018-Jun-12 15:29N 29°58' W 093°51'0 0.0
2018-Jun-12 15:00N 29°58' W 093°51'0 0.0
2018-Jun-12 14:30N 29°58' W 093°51'0 0.0
2018-Jun-12 13:59N 29°58' W 093°51'0 0.0
2018-Jun-12 13:30N 29°58' W 093°51'0 0.0
2018-Jun-12 13:00N 29°58' W 093°51'0 0.0
2018-Jun-12 12:30N 29°58' W 093°51'0 0.0
2018-Jun-12 12:00N 29°58' W 093°51'0 0.0
2018-Jun-12 11:30N 29°58' W 093°51'0 0.0
2018-Jun-12 11:00N 29°58' W 093°51'0 0.0
2018-Jun-12 10:30N 29°58' W 093°51'0 0.0
2018-Jun-12 10:00N 29°58' W 093°51'0 0.0
2018-Jun-12 09:30N 29°58' W 093°51'0 0.0
2018-Jun-12 09:00N 29°58' W 093°51'0 0.0
2018-Jun-12 08:30N 29°58' W 093°51'0 0.0
2018-Jun-12 08:00N 29°58' W 093°51'0 0.0
2018-Jun-12 07:30N 29°58' W 093°51'0 0.0
2018-Jun-12 07:00N 29°58' W 093°51'0 0.0
2018-Jun-12 06:30N 29°58' W 093°51'0 0.0
2018-Jun-12 06:00N 29°58' W 093°51'0 0.0
2018-Jun-12 05:31N 29°58' W 093°51'0 0.0
2018-Jun-12 05:00N 29°58' W 093°51'0 0.0
2018-Jun-12 04:30N 29°58' W 093°51'0 0.0
2018-Jun-12 04:00N 29°58' W 093°51'0 0.0
2018-Jun-12 03:30N 29°58' W 093°51'0 0.0
2018-Jun-12 03:00N 29°58' W 093°51'0 0.0
2018-Jun-12 02:29N 29°58' W 093°51'0 0.0
2018-Jun-12 02:00N 29°58' W 093°51'0 0.0
2018-Jun-12 01:30N 29°58' W 093°51'0 0.0
2018-Jun-12 01:00N 29°58' W 093°51'0 0.0
2018-Jun-12 00:30N 29°58' W 093°51'0 0.0
2018-Jun-12 00:00N 29°58' W 093°51'0 0.0
2018-Jun-11 23:30N 29°58' W 093°51'0 0.0
2018-Jun-11 23:00N 29°58' W 093°51'0 0.0
2018-Jun-11 22:30N 29°58' W 093°51'0 0.0
2018-Jun-11 22:00N 29°58' W 093°51'0 0.0
2018-Jun-11 21:30N 29°58' W 093°51'0 0.0
2018-Jun-11 21:00N 29°58' W 093°51'0 0.0
2018-Jun-11 20:30N 29°58' W 093°51'0 0.0
2018-Jun-11 20:00N 29°58' W 093°51'0 0.0
2018-Jun-11 19:30N 29°58' W 093°51'0 0.0
2018-Jun-11 19:00N 29°58' W 093°51'0 0.0
2018-Jun-11 18:30N 29°58' W 093°51'0 0.0
2018-Jun-11 18:00N 29°58' W 093°51'0 0.0
2018-Jun-11 17:30N 29°58' W 093°51'0 0.0
2018-Jun-11 17:00N 29°58' W 093°51'0 0.0
2018-Jun-11 16:30N 29°58' W 093°51'0 0.0
2018-Jun-11 16:00N 29°58' W 093°51'0 0.0
2018-Jun-11 15:30N 29°58' W 093°51'0 0.0
2018-Jun-11 15:00N 29°58' W 093°51'0 0.0
2018-Jun-11 14:30N 29°58' W 093°51'0 0.0
2018-Jun-11 14:00N 29°58' W 093°51'0 0.0
2018-Jun-11 13:30N 29°58' W 093°51'0 0.0
2018-Jun-11 13:00N 29°58' W 093°51'0 0.0
2018-Jun-11 12:30N 29°58' W 093°51'0 0.0
2018-Jun-11 12:00N 29°58' W 093°51'0 0.0
2018-Jun-11 11:30N 29°58' W 093°51'0 0.0
2018-Jun-11 11:00N 29°58' W 093°51'0 0.0
2018-Jun-11 10:30N 29°58' W 093°51'0 0.0
2018-Jun-11 10:00N 29°58' W 093°51'0 0.0
2018-Jun-11 09:30N 29°58' W 093°51'0 0.0
2018-Jun-11 09:01N 29°58' W 093°51'0 0.0
2018-Jun-11 08:30N 29°58' W 093°51'0 0.0
2018-Jun-11 08:00N 29°58' W 093°51'0 0.0
2018-Jun-11 07:30N 29°58' W 093°51'0 0.0
2018-Jun-11 07:00N 29°58' W 093°51'0 0.0
2018-Jun-11 06:30N 29°58' W 093°51'0 0.0
2018-Jun-11 06:00N 29°58' W 093°51'0 0.0
2018-Jun-11 05:30N 29°58' W 093°51'0 0.0
2018-Jun-11 05:00N 29°58' W 093°51'0 0.0
2018-Jun-11 04:30N 29°58' W 093°51'0 0.0
2018-Jun-11 04:00N 29°58' W 093°51'0 0.0
2018-Jun-11 03:30N 29°58' W 093°51'0 0.0
2018-Jun-11 03:00N 29°58' W 093°51'0 0.0
2018-Jun-11 02:30N 29°58' W 093°51'0 0.0
2018-Jun-11 02:00N 29°58' W 093°51'0 0.0
2018-Jun-11 01:30N 29°58' W 093°51'0 0.0
2018-Jun-11 01:00N 29°58' W 093°51'0 0.0
2018-Jun-11 00:30N 29°58' W 093°51'0 0.0
2018-Jun-11 00:00N 29°58' W 093°51'0 0.0
2018-Jun-10 23:30N 29°58' W 093°51'0 0.0
2018-Jun-10 23:00N 29°58' W 093°51'0 0.0
2018-Jun-10 22:30N 29°58' W 093°51'0 0.5
2018-Jun-10 22:00N 29°58' W 093°51'0 0.0
2018-Jun-10 21:30N 29°58' W 093°51'0 0.0
2018-Jun-10 21:00N 29°58' W 093°51'0 0.0
2018-Jun-10 20:30N 29°58' W 093°51'0 0.0
2018-Jun-10 20:00N 29°58' W 093°51'0 0.0
2018-Jun-10 19:30N 29°58' W 093°51'0 0.0
2018-Jun-10 19:01N 29°58' W 093°51'0 0.0
2018-Jun-10 18:30N 29°58' W 093°51'0 0.3
2018-Jun-10 18:00N 29°58' W 093°51'0 0.0
2018-Jun-10 17:30N 29°58' W 093°51'0 0.0
2018-Jun-10 17:00N 29°58' W 093°51'0 0.0
2018-Jun-10 16:30N 29°58' W 093°51'0 0.0
2018-Jun-10 16:00N 29°58' W 093°51'0 0.0
2018-Jun-10 15:30N 29°58' W 093°51'0 0.0
2018-Jun-10 15:00N 29°58' W 093°51'0 0.0
2018-Jun-10 14:30N 29°58' W 093°51'0 0.0
2018-Jun-10 13:30N 29°58' W 093°51'0 0.0
2018-Jun-10 12:58N 29°58' W 093°51'0 0.0
2018-Jun-10 12:30N 29°58' W 093°51'0 0.3
2018-Jun-10 12:00N 29°58' W 093°51'0 0.0
2018-Jun-10 11:30N 29°58' W 093°51'0 0.0
2018-Jun-10 11:00N 29°58' W 093°51'0 0.0
2018-Jun-10 10:30N 29°58' W 093°51'0 0.0
2018-Jun-10 10:00N 29°58' W 093°51'0 0.0
2018-Jun-10 09:30N 29°58' W 093°51'0 0.0
2018-Jun-10 09:00N 29°58' W 093°51'0 0.0
2018-Jun-10 08:30N 29°58' W 093°51'0 0.0
2018-Jun-10 08:00N 29°58' W 093°51'0 0.0
2018-Jun-10 07:30N 29°58' W 093°51'0 0.0
2018-Jun-10 07:00N 29°58' W 093°51'0 0.0
2018-Jun-10 06:30N 29°58' W 093°51'0 0.0
2018-Jun-10 06:00N 29°58' W 093°51'0 0.0
2018-Jun-10 05:29N 29°58' W 093°51'0 0.0
2018-Jun-10 05:00N 29°58' W 093°51'0 0.0
2018-Jun-10 04:30N 29°58' W 093°51'0 0.0
2018-Jun-10 04:00N 29°58' W 093°51'0 0.0
2018-Jun-10 03:30N 29°58' W 093°51'0 0.0
2018-Jun-10 03:00N 29°58' W 093°51'0 0.0
2018-Jun-10 02:31N 29°58' W 093°51'0 0.0
2018-Jun-10 02:01N 29°58' W 093°51'0 0.0
2018-Jun-10 01:30N 29°58' W 093°51'0 0.0
2018-Jun-10 01:00N 29°58' W 093°51'0 0.0
2018-Jun-10 00:30N 29°58' W 093°51'0 0.0
2018-Jun-10 00:00N 29°58' W 093°51'0 0.0
2018-Jun-09 23:30N 29°58' W 093°51'0 0.0
2018-Jun-09 23:00N 29°58' W 093°51'0 0.0
2018-Jun-09 22:30N 29°58' W 093°51'0 0.0
2018-Jun-09 22:00N 29°58' W 093°51'0 0.0
2018-Jun-09 21:30N 29°58' W 093°51'0 0.0
2018-Jun-09 21:00N 29°58' W 093°51'0 0.0
2018-Jun-09 20:30N 29°58' W 093°51'0 0.0
2018-Jun-09 20:00N 29°58' W 093°51'0 0.0
2018-Jun-09 19:30N 29°58' W 093°51'0 0.0
2018-Jun-09 19:00N 29°58' W 093°51'0 0.0
2018-Jun-09 18:30N 29°58' W 093°51'0 0.0
2018-Jun-09 18:00N 29°58' W 093°51'0 0.0
2018-Jun-09 17:30N 29°58' W 093°51'0 0.0
2018-Jun-09 17:00N 29°58' W 093°51'0 0.0
2018-Jun-09 16:30N 29°58' W 093°51'0 0.0
2018-Jun-09 16:00N 29°58' W 093°51'0 0.0
2018-Jun-09 15:01N 29°58' W 093°51'1 1.4
2018-Jun-09 14:30N 29°58' W 093°52'1 1.5
2018-Jun-09 14:00N 29°58' W 093°51'0 0.0
2018-Jun-09 13:30N 29°58' W 093°51'0 0.0
2018-Jun-09 13:00N 29°58' W 093°51'0 0.0
2018-Jun-09 12:30N 29°58' W 093°51'  
Track history (hours):
 
Tides and Currents Weather Stations Pressure Air Temp Water Temp Dewpoint Dewpoint Depression Visibility Wind Speed Wind Dir Waves Ship Positions

Kristy Dutsch

Owner: Florida Marine, LLC, Mandeville, LA. More information available from US FCC via Universal Licensing System and Coast Guard Vessel Documentation Center.

Last reported at 2018-Jun-19 12:30 UTC. Time now 2018-Jun-19 12:46 UTC.
Position N 30°06' W 093°18'.

Length 26 m; draft 2.8 m.

Type: Other ship. MMSI: 367096290.

Date/timePositionNaut miles runAvg speedWind from/ knotsBaromVisibWave heightAir tempDewpointWater temp
2018-Jun-19 12:30N 30°06' W 093°18'0 0.0
2018-Jun-19 12:00N 30°06' W 093°18'0 0.1
2018-Jun-19 11:30N 30°06' W 093°18'1 1.7
2018-Jun-19 11:00N 30°06' W 093°19'2 4.6
2018-Jun-19 10:30N 30°04' W 093°21'2 4.5
2018-Jun-19 10:00N 30°04' W 093°23'1 2.8
2018-Jun-19 09:30N 30°04' W 093°25'0 0.1
2018-Jun-19 09:00N 30°04' W 093°25'0 0.0
2018-Jun-19 08:30N 30°04' W 093°25'0 0.0
2018-Jun-19 08:00N 30°04' W 093°25'0 0.0
2018-Jun-19 07:30N 30°04' W 093°25'0 0.0
2018-Jun-19 07:00N 30°04' W 093°25'0 0.0
2018-Jun-19 06:30N 30°04' W 093°25'0 0.0
2018-Jun-19 06:00N 30°04' W 093°25'0 0.0
2018-Jun-19 05:30N 30°04' W 093°25'0 0.0
2018-Jun-19 05:00N 30°04' W 093°25'0 0.0
2018-Jun-19 04:30N 30°04' W 093°25'0 0.0
2018-Jun-19 04:00N 30°04' W 093°25'0 0.1
2018-Jun-19 03:30N 30°04' W 093°25'0 0.0
2018-Jun-19 03:00N 30°04' W 093°25'0 0.0
2018-Jun-19 02:30N 30°04' W 093°25'0 0.2
2018-Jun-19 02:00N 30°04' W 093°25'0 0.5
2018-Jun-19 01:30N 30°04' W 093°25'0 0.6
2018-Jun-19 01:00N 30°04' W 093°26'2 3.9
2018-Jun-19 00:30N 30°04' W 093°28'2 4.7
2018-Jun-19 00:00N 30°04' W 093°31'2 4.5
2018-Jun-18 23:29N 30°04' W 093°33'2 4.6
2018-Jun-18 23:00N 30°04' W 093°36'3 5.0
2018-Jun-18 22:30N 30°04' W 093°39'3 5.1
2018-Jun-18 22:00N 30°04' W 093°42'3 5.2
2018-Jun-18 21:30N 30°02' W 093°44'3 5.1
2018-Jun-18 21:00N 30°00' W 093°46'0 0.2
2018-Jun-18 20:30N 30°00' W 093°46'0 0.0
2018-Jun-18 20:00N 30°00' W 093°46'0 0.1
2018-Jun-18 19:30N 30°00' W 093°46'0 0.0
2018-Jun-18 19:01N 30°00' W 093°46'0 0.0
2018-Jun-18 18:30N 30°00' W 093°46'1 2.5
2018-Jun-18 18:00N 29°59' W 093°47'2 3.2
2018-Jun-18 17:31N 29°59' W 093°49'1 1.5
2018-Jun-18 17:00N 29°59' W 093°50'1 2.5
2018-Jun-18 16:30N 29°58' W 093°51'3 6.0
2018-Jun-18 16:00N 29°56' W 093°53'3 5.7
2018-Jun-18 15:30N 29°53' W 093°55'3 6.0
2018-Jun-18 15:00N 29°51' W 093°57'2 4.7
2018-Jun-18 14:30N 29°49' W 093°59'1 1.4
2018-Jun-18 14:00N 29°49' W 093°59'2 3.6
2018-Jun-18 13:30N 29°48' W 094°01'2 4.3
2018-Jun-18 13:00N 29°46' W 094°03'2 4.2
2018-Jun-18 12:30N 29°45' W 094°05'2 4.3
2018-Jun-18 12:00N 29°43' W 094°07'2 4.2
2018-Jun-18 11:30N 29°42' W 094°08'2 4.3
2018-Jun-18 11:00N 29°41' W 094°11'2 4.3
2018-Jun-18 10:30N 29°40' W 094°13'2 4.5
2018-Jun-18 10:00N 29°39' W 094°15'2 4.4
2018-Jun-18 09:27N 29°38' W 094°18'2 4.2
2018-Jun-18 09:00N 29°37' W 094°20'2 3.7
2018-Jun-18 08:30N 29°37' W 094°22'2 3.7
2018-Jun-18 07:58N 29°36' W 094°24'2 3.2
2018-Jun-18 07:28N 29°35' W 094°25'22 2.5
2018-Jun-17 22:41N 29°23' W 094°46'1 6.8
2018-Jun-17 22:30N 29°22' W 094°48'3 5.5
2018-Jun-17 22:00N 29°22' W 094°51'2 3.1
2018-Jun-17 21:17N 29°22' W 094°53'0 0.4
2018-Jun-17 21:00N 29°22' W 094°53'0 0.1
2018-Jun-17 18:58N 29°23' W 094°54'0 0.0
2018-Jun-17 18:28N 29°23' W 094°54'0 0.0
2018-Jun-17 17:58N 29°23' W 094°54'0 0.0
2018-Jun-17 17:29N 29°23' W 094°54'0 0.0
2018-Jun-17 17:00N 29°23' W 094°54'0 0.0
2018-Jun-17 16:27N 29°23' W 094°54'0 0.0
2018-Jun-17 15:59N 29°23' W 094°54'0 0.0
2018-Jun-17 15:27N 29°23' W 094°54'0 0.0
2018-Jun-17 01:30N 29°23' W 094°54'0 0.0
2018-Jun-16 22:54N 29°23' W 094°54'0 0.0
2018-Jun-16 22:29N 29°23' W 094°54'0 0.0
2018-Jun-16 21:59N 29°23' W 094°54'0 0.0
2018-Jun-16 21:27N 29°23' W 094°54'0 0.0
2018-Jun-16 20:57N 29°23' W 094°54'0 0.0
2018-Jun-16 20:26N 29°23' W 094°54'0 0.0
2018-Jun-16 20:00N 29°23' W 094°54'0 0.0
2018-Jun-16 19:29N 29°23' W 094°54'0 0.0
2018-Jun-16 18:12N 29°23' W 094°54'0 0.0
2018-Jun-16 18:00N 29°23' W 094°54'0 0.0
2018-Jun-16 17:11N 29°23' W 094°54'0 0.0
2018-Jun-16 16:53N 29°23' W 094°54'0 0.0
2018-Jun-16 16:12N 29°23' W 094°54'0 0.0
2018-Jun-16 15:57N 29°23' W 094°54'0 0.0
2018-Jun-16 14:17N 29°23' W 094°54'0 0.0
2018-Jun-16 13:51N 29°23' W 094°54'0 0.0
2018-Jun-16 13:27N 29°23' W 094°54'0 0.0
2018-Jun-16 12:53N 29°23' W 094°54'0 0.0
2018-Jun-16 12:27N 29°23' W 094°54'0 0.0
2018-Jun-16 11:53N 29°23' W 094°54'0 0.0
2018-Jun-16 09:02N 29°23' W 094°54'0 0.0
2018-Jun-16 08:06N 29°23' W 094°54'0 0.0
2018-Jun-16 00:23N 29°23' W 094°54'0 1.0
2018-Jun-16 00:00N 29°23' W 094°53'1 1.6
2018-Jun-15 23:30N 29°23' W 094°52'0 0.0
2018-Jun-15 23:00N 29°23' W 094°52'0 0.0
2018-Jun-15 22:21N 29°23' W 094°52'0 0.0
2018-Jun-15 22:00N 29°23' W 094°52'0 0.0
2018-Jun-15 21:30N 29°23' W 094°52'0 0.0
2018-Jun-15 20:53N 29°23' W 094°52'0 0.0
2018-Jun-15 20:30N 29°23' W 094°52'0 0.0
2018-Jun-15 20:00N 29°23' W 094°52'0 0.0
2018-Jun-15 19:30N 29°23' W 094°52'0 0.0
2018-Jun-15 19:00N 29°23' W 094°52'0 0.0
2018-Jun-15 18:30N 29°23' W 094°52'0 0.0
2018-Jun-15 17:57N 29°23' W 094°52'0 0.0
2018-Jun-15 17:30N 29°23' W 094°52'0 0.0
2018-Jun-15 17:00N 29°23' W 094°52'1 2.1
2018-Jun-15 16:28N 29°22' W 094°53'0 0.5
2018-Jun-15 15:56N 29°22' W 094°53'0 0.1
2018-Jun-15 14:59N 29°22' W 094°54'0 0.1
2018-Jun-15 14:30N 29°22' W 094°53'0 0.0
2018-Jun-15 14:00N 29°22' W 094°53'0 0.0
2018-Jun-15 13:30N 29°22' W 094°53'0 0.0
2018-Jun-15 13:00N 29°22' W 094°53'0 0.0
2018-Jun-15 12:30N 29°22' W 094°53'1 2.8
2018-Jun-15 12:00N 29°23' W 094°52'0 0.0
2018-Jun-15 11:30N 29°23' W 094°52'0 0.0
2018-Jun-15 10:58N 29°23' W 094°52'0 0.0
2018-Jun-15 10:30N 29°23' W 094°52'0 0.0
2018-Jun-15 10:00N 29°23' W 094°52'0 0.0
2018-Jun-15 09:30N 29°23' W 094°52'0 0.0
2018-Jun-15 08:58N 29°23' W 094°52'0 0.0
2018-Jun-15 08:29N 29°23' W 094°52'0 0.1
2018-Jun-15 08:00N 29°23' W 094°52'0 0.1
2018-Jun-15 07:28N 29°23' W 094°52'0 0.1
2018-Jun-15 06:54N 29°23' W 094°52'0 0.0
2018-Jun-15 06:29N 29°23' W 094°52'0 0.0
2018-Jun-15 06:00N 29°23' W 094°52'0 0.0
2018-Jun-15 05:30N 29°23' W 094°52'0 0.0
2018-Jun-15 04:59N 29°23' W 094°52'0 0.0
2018-Jun-15 04:30N 29°23' W 094°52'0 0.0
2018-Jun-15 04:00N 29°23' W 094°52'0 0.0
2018-Jun-15 03:30N 29°23' W 094°52'0 0.0
2018-Jun-15 03:00N 29°23' W 094°52'0 0.0
2018-Jun-15 02:29N 29°23' W 094°52'0 0.0
2018-Jun-15 02:00N 29°23' W 094°52'0 0.4
2018-Jun-15 01:30N 29°23' W 094°52'3 6.3
2018-Jun-15 01:00N 29°22' W 094°49'2 4.2
2018-Jun-15 00:24N 29°23' W 094°46'0 0.0
2018-Jun-14 23:12N 29°23' W 094°46'0 0.0
2018-Jun-14 23:00N 29°23' W 094°46'0 0.0
2018-Jun-14 22:29N 29°23' W 094°46'0 0.4
2018-Jun-14 22:00N 29°23' W 094°46'2 2.2
2018-Jun-14 21:14N 29°24' W 094°45'1 5.7
2018-Jun-14 21:00N 29°25' W 094°44'17 6.1
2018-Jun-14 18:13N 29°34' W 094°27'2 5.8
2018-Jun-14 17:57N 29°34' W 094°25'2 4.7
2018-Jun-14 17:31N 29°36' W 094°23'3 5.8
2018-Jun-14 16:59N 29°37' W 094°20'3 6.1
2018-Jun-14 16:28N 29°39' W 094°17'3 6.1
2018-Jun-14 16:00N 29°40' W 094°14'3 6.1
2018-Jun-14 15:30N 29°41' W 094°11'3 5.9
2018-Jun-14 15:01N 29°43' W 094°08'3 6.3
2018-Jun-14 14:30N 29°45' W 094°05'3 6.1
2018-Jun-14 14:00N 29°46' W 094°02'3 6.5
2018-Jun-14 13:30N 29°49' W 093°60'3 5.5
2018-Jun-14 13:00N 29°51' W 093°57'3 6.5
2018-Jun-14 12:30N 29°53' W 093°55'3 6.6
2018-Jun-14 12:00N 29°56' W 093°52'3 5.7
2018-Jun-14 11:30N 29°59' W 093°52'1 2.3
2018-Jun-14 11:00N 29°59' W 093°53'0 0.0
2018-Jun-14 10:30N 29°59' W 093°53'0 0.0
2018-Jun-14 10:00N 29°59' W 093°53'0 0.0
2018-Jun-14 09:30N 29°59' W 093°53'0 0.0
2018-Jun-14 09:00N 29°59' W 093°53'0 0.0
2018-Jun-14 08:30N 29°59' W 093°53'0 0.0
2018-Jun-14 08:00N 29°59' W 093°53'0 0.0
2018-Jun-14 07:30N 29°59' W 093°53'0 0.0
2018-Jun-14 07:00N 29°59' W 093°53'0 0.0
2018-Jun-14 06:30N 29°59' W 093°53'0 0.0
2018-Jun-14 06:00N 29°59' W 093°53'0 0.0
2018-Jun-14 05:30N 29°59' W 093°53'0 0.0
2018-Jun-14 05:00N 29°59' W 093°53'0 0.0
2018-Jun-14 04:30N 29°59' W 093°53'0 0.0
2018-Jun-14 04:00N 29°59' W 093°53'0 0.0
2018-Jun-14 03:30N 29°59' W 093°53'0 0.0
2018-Jun-14 03:00N 29°59' W 093°53'0 0.0
2018-Jun-14 02:30N 29°59' W 093°53'0 0.0
2018-Jun-14 01:59N 29°59' W 093°53'0 0.0
2018-Jun-14 01:30N 29°59' W 093°53'0 0.0
2018-Jun-14 01:00N 29°59' W 093°53'0 0.0
2018-Jun-14 00:30N 29°59' W 093°53'0 0.0
2018-Jun-14 00:00N 29°59' W 093°53'0 0.0
2018-Jun-13 23:30N 29°59' W 093°53'0 0.0
2018-Jun-13 23:00N 29°59' W 093°53'0 0.0
2018-Jun-13 22:30N 29°59' W 093°53'0 0.0
2018-Jun-13 22:00N 29°59' W 093°53'0 0.0
2018-Jun-13 21:30N 29°59' W 093°53'0 0.0
2018-Jun-13 21:00N 29°59' W 093°53'0 0.0
2018-Jun-13 20:30N 29°59' W 093°53'0 0.0
2018-Jun-13 20:00N 29°59' W 093°53'0 0.0
2018-Jun-13 19:30N 29°59' W 093°53'0 0.0
2018-Jun-13 19:00N 29°59' W 093°53'0 0.0
2018-Jun-13 18:30N 29°59' W 093°53'0 0.0
2018-Jun-13 18:00N 29°59' W 093°53'0 0.0
2018-Jun-13 17:31N 29°59' W 093°53'0 0.0
2018-Jun-13 17:00N 29°59' W 093°53'0 0.0
2018-Jun-13 16:30N 29°59' W 093°53'0 0.0
2018-Jun-13 16:00N 29°59' W 093°53'0 0.0
2018-Jun-13 15:30N 29°59' W 093°53'0 0.0
2018-Jun-13 15:00N 29°59' W 093°53'0 0.0
2018-Jun-13 14:30N 29°59' W 093°53'0 0.0
2018-Jun-13 14:00N 29°59' W 093°53'0 0.0
2018-Jun-13 13:30N 29°59' W 093°53'0 0.0
2018-Jun-13 13:00N 29°59' W 093°53'0 0.0
2018-Jun-13 12:30N 29°59' W 093°53'0 0.0
2018-Jun-13 12:00N 29°59' W 093°53'0 0.0
2018-Jun-13 11:30N 29°59' W 093°53'0 0.0
2018-Jun-13 11:00N 29°59' W 093°53'0 0.0
2018-Jun-13 10:30N 29°59' W 093°53'0 0.0
2018-Jun-13 10:00N 29°59' W 093°53'0 0.0
2018-Jun-13 09:30N 29°59' W 093°53'0 0.0
2018-Jun-13 09:00N 29°59' W 093°53'0 0.0
2018-Jun-13 08:30N 29°59' W 093°53'0 0.0
2018-Jun-13 08:00N 29°59' W 093°53'0 0.0
2018-Jun-13 07:30N 29°59' W 093°53'0 0.0
2018-Jun-13 07:00N 29°59' W 093°53'0 0.0
2018-Jun-13 06:30N 29°59' W 093°53'0 0.0
2018-Jun-13 06:00N 29°59' W 093°53'0 0.0
2018-Jun-13 05:30N 29°59' W 093°53'0 0.0
2018-Jun-13 05:00N 29°59' W 093°53'0 0.0
2018-Jun-13 04:30N 29°59' W 093°53'0 0.0
2018-Jun-13 04:00N 29°59' W 093°53'0 0.0
2018-Jun-13 03:30N 29°59' W 093°53'0 0.0
2018-Jun-13 03:00N 29°59' W 093°53'0 0.0
2018-Jun-13 02:30N 29°59' W 093°53'0 0.0
2018-Jun-13 02:00N 29°59' W 093°53'0 0.0
2018-Jun-13 01:30N 29°59' W 093°53'0 1.0
2018-Jun-13 01:00N 29°59' W 093°52'1 2.9
2018-Jun-13 00:30N 29°58' W 093°51'0 0.2
2018-Jun-13 00:00N 29°58' W 093°51'0 0.0
2018-Jun-12 23:30N 29°58' W 093°51'0 0.0
2018-Jun-12 23:00N 29°58' W 093°51'0 0.0
2018-Jun-12 22:30N 29°58' W 093°51'0 0.0
2018-Jun-12 22:00N 29°58' W 093°51'0 0.0
2018-Jun-12 21:30N 29°58' W 093°51'0 0.0
2018-Jun-12 21:00N 29°58' W 093°51'0 0.0
2018-Jun-12 20:30N 29°58' W 093°51'0 0.0
2018-Jun-12 20:00N 29°58' W 093°51'0 0.0
2018-Jun-12 19:30N 29°58' W 093°51'0 0.0
2018-Jun-12 19:00N 29°58' W 093°51'0 0.0
2018-Jun-12 18:30N 29°58' W 093°51'0 0.0
2018-Jun-12 18:00N 29°58' W 093°51'0 0.0
2018-Jun-12 17:30N 29°58' W 093°51'0 0.0
2018-Jun-12 17:00N 29°58' W 093°51'0 0.0
2018-Jun-12 16:30N 29°58' W 093°51'0 0.0
2018-Jun-12 16:00N 29°58' W 093°51'0 0.0
2018-Jun-12 15:29N 29°58' W 093°51'0 0.0
2018-Jun-12 15:00N 29°58' W 093°51'0 0.0
2018-Jun-12 14:30N 29°58' W 093°51'0 0.0
2018-Jun-12 13:59N 29°58' W 093°51'0 0.0
2018-Jun-12 13:30N 29°58' W 093°51'0 0.0
2018-Jun-12 13:00N 29°58' W 093°51'0 0.0
2018-Jun-12 12:30N 29°58' W 093°51'0 0.0
2018-Jun-12 12:00N 29°58' W 093°51'0 0.0
2018-Jun-12 11:30N 29°58' W 093°51'0 0.0
2018-Jun-12 11:00N 29°58' W 093°51'0 0.0
2018-Jun-12 10:30N 29°58' W 093°51'0 0.0
2018-Jun-12 10:00N 29°58' W 093°51'0 0.0
2018-Jun-12 09:30N 29°58' W 093°51'0 0.0
2018-Jun-12 09:00N 29°58' W 093°51'0 0.0
2018-Jun-12 08:30N 29°58' W 093°51'0 0.0
2018-Jun-12 08:00N 29°58' W 093°51'0 0.0
2018-Jun-12 07:30N 29°58' W 093°51'0 0.0
2018-Jun-12 07:00N 29°58' W 093°51'0 0.0
2018-Jun-12 06:30N 29°58' W 093°51'0 0.0
2018-Jun-12 06:00N 29°58' W 093°51'0 0.0
2018-Jun-12 05:31N 29°58' W 093°51'0 0.0
2018-Jun-12 05:00N 29°58' W 093°51'0 0.0
2018-Jun-12 04:30N 29°58' W 093°51'0 0.0
2018-Jun-12 04:00N 29°58' W 093°51'0 0.0
2018-Jun-12 03:30N 29°58' W 093°51'0 0.0
2018-Jun-12 03:00N 29°58' W 093°51'0 0.0
2018-Jun-12 02:29N 29°58' W 093°51'0 0.0
2018-Jun-12 02:00N 29°58' W 093°51'0 0.0
2018-Jun-12 01:30N 29°58' W 093°51'0 0.0
2018-Jun-12 01:00N 29°58' W 093°51'0 0.0
2018-Jun-12 00:30N 29°58' W 093°51'0 0.0
2018-Jun-12 00:00N 29°58' W 093°51'0 0.0
2018-Jun-11 23:30N 29°58' W 093°51'0 0.0
2018-Jun-11 23:00N 29°58' W 093°51'0 0.0
2018-Jun-11 22:30N 29°58' W 093°51'0 0.0
2018-Jun-11 22:00N 29°58' W 093°51'0 0.0
2018-Jun-11 21:30N 29°58' W 093°51'0 0.0
2018-Jun-11 21:00N 29°58' W 093°51'0 0.0
2018-Jun-11 20:30N 29°58' W 093°51'0 0.0
2018-Jun-11 20:00N 29°58' W 093°51'0 0.0
2018-Jun-11 19:30N 29°58' W 093°51'0 0.0
2018-Jun-11 19:00N 29°58' W 093°51'0 0.0
2018-Jun-11 18:30N 29°58' W 093°51'0 0.0
2018-Jun-11 18:00N 29°58' W 093°51'0 0.0
2018-Jun-11 17:30N 29°58' W 093°51'0 0.0
2018-Jun-11 17:00N 29°58' W 093°51'0 0.0
2018-Jun-11 16:30N 29°58' W 093°51'0 0.0
2018-Jun-11 16:00N 29°58' W 093°51'0 0.0
2018-Jun-11 15:30N 29°58' W 093°51'0 0.0
2018-Jun-11 15:00N 29°58' W 093°51'0 0.0
2018-Jun-11 14:30N 29°58' W 093°51'0 0.0
2018-Jun-11 14:00N 29°58' W 093°51'0 0.0
2018-Jun-11 13:30N 29°58' W 093°51'0 0.0
2018-Jun-11 13:00N 29°58' W 093°51'0 0.0
2018-Jun-11 12:30N 29°58' W 093°51'0 0.0
2018-Jun-11 12:00N 29°58' W 093°51'0 0.0
2018-Jun-11 11:30N 29°58' W 093°51'0 0.0
2018-Jun-11 11:00N 29°58' W 093°51'0 0.0
2018-Jun-11 10:30N 29°58' W 093°51'0 0.0
2018-Jun-11 10:00N 29°58' W 093°51'0 0.0
2018-Jun-11 09:30N 29°58' W 093°51'0 0.0
2018-Jun-11 09:01N 29°58' W 093°51'0 0.0
2018-Jun-11 08:30N 29°58' W 093°51'0 0.0
2018-Jun-11 08:00N 29°58' W 093°51'0 0.0
2018-Jun-11 07:30N 29°58' W 093°51'0 0.0
2018-Jun-11 07:00N 29°58' W 093°51'0 0.0
2018-Jun-11 06:30N 29°58' W 093°51'0 0.0
2018-Jun-11 06:00N 29°58' W 093°51'0 0.0
2018-Jun-11 05:30N 29°58' W 093°51'0 0.0
2018-Jun-11 05:00N 29°58' W 093°51'0 0.0
2018-Jun-11 04:30N 29°58' W 093°51'0 0.0
2018-Jun-11 04:00N 29°58' W 093°51'0 0.0
2018-Jun-11 03:30N 29°58' W 093°51'0 0.0
2018-Jun-11 03:00N 29°58' W 093°51'0 0.0
2018-Jun-11 02:30N 29°58' W 093°51'0 0.0
2018-Jun-11 02:00N 29°58' W 093°51'0 0.0
2018-Jun-11 01:30N 29°58' W 093°51'0 0.0
2018-Jun-11 01:00N 29°58' W 093°51'0 0.0
2018-Jun-11 00:30N 29°58' W 093°51'0 0.0
2018-Jun-11 00:00N 29°58' W 093°51'0 0.0
2018-Jun-10 23:30N 29°58' W 093°51'0 0.0
2018-Jun-10 23:00N 29°58' W 093°51'0 0.0
2018-Jun-10 22:30N 29°58' W 093°51'0 0.5
2018-Jun-10 22:00N 29°58' W 093°51'0 0.0
2018-Jun-10 21:30N 29°58' W 093°51'0 0.0
2018-Jun-10 21:00N 29°58' W 093°51'0 0.0
2018-Jun-10 20:30N 29°58' W 093°51'0 0.0
2018-Jun-10 20:00N 29°58' W 093°51'0 0.0
2018-Jun-10 19:30N 29°58' W 093°51'0 0.0
2018-Jun-10 19:01N 29°58' W 093°51'0 0.0
2018-Jun-10 18:30N 29°58' W 093°51'0 0.3
2018-Jun-10 18:00N 29°58' W 093°51'0 0.0
2018-Jun-10 17:30N 29°58' W 093°51'0 0.0
2018-Jun-10 17:00N 29°58' W 093°51'0 0.0
2018-Jun-10 16:30N 29°58' W 093°51'0 0.0
2018-Jun-10 16:00N 29°58' W 093°51'0 0.0
2018-Jun-10 15:30N 29°58' W 093°51'0 0.0
2018-Jun-10 15:00N 29°58' W 093°51'0 0.0
2018-Jun-10 14:30N 29°58' W 093°51'0 0.0
2018-Jun-10 13:30N 29°58' W 093°51'0 0.0
2018-Jun-10 12:58N 29°58' W 093°51'0 0.0
2018-Jun-10 12:30N 29°58' W 093°51'0 0.3
2018-Jun-10 12:00N 29°58' W 093°51'0 0.0
2018-Jun-10 11:30N 29°58' W 093°51'0 0.0
2018-Jun-10 11:00N 29°58' W 093°51'0 0.0
2018-Jun-10 10:30N 29°58' W 093°51'0 0.0
2018-Jun-10 10:00N 29°58' W 093°51'0 0.0
2018-Jun-10 09:30N 29°58' W 093°51'0 0.0
2018-Jun-10 09:00N 29°58' W 093°51'0 0.0
2018-Jun-10 08:30N 29°58' W 093°51'0 0.0
2018-Jun-10 08:00N 29°58' W 093°51'0 0.0
2018-Jun-10 07:30N 29°58' W 093°51'0 0.0
2018-Jun-10 07:00N 29°58' W 093°51'0 0.0
2018-Jun-10 06:30N 29°58' W 093°51'0 0.0
2018-Jun-10 06:00N 29°58' W 093°51'0 0.0
2018-Jun-10 05:29N 29°58' W 093°51'0 0.0
2018-Jun-10 05:00N 29°58' W 093°51'0 0.0
2018-Jun-10 04:30N 29°58' W 093°51'0 0.0
2018-Jun-10 04:00N 29°58' W 093°51'0 0.0
2018-Jun-10 03:30N 29°58' W 093°51'0 0.0
2018-Jun-10 03:00N 29°58' W 093°51'0 0.0
2018-Jun-10 02:31N 29°58' W 093°51'0 0.0
2018-Jun-10 02:01N 29°58' W 093°51'0 0.0
2018-Jun-10 01:30N 29°58' W 093°51'0 0.0
2018-Jun-10 01:00N 29°58' W 093°51'0 0.0
2018-Jun-10 00:30N 29°58' W 093°51'0 0.0
2018-Jun-10 00:00N 29°58' W 093°51'0 0.0
2018-Jun-09 23:30N 29°58' W 093°51'0 0.0
2018-Jun-09 23:00N 29°58' W 093°51'0 0.0
2018-Jun-09 22:30N 29°58' W 093°51'0 0.0
2018-Jun-09 22:00N 29°58' W 093°51'0 0.0
2018-Jun-09 21:30N 29°58' W 093°51'0 0.0
2018-Jun-09 21:00N 29°58' W 093°51'0 0.0
2018-Jun-09 20:30N 29°58' W 093°51'0 0.0
2018-Jun-09 20:00N 29°58' W 093°51'0 0.0
2018-Jun-09 19:30N 29°58' W 093°51'0 0.0
2018-Jun-09 19:00N 29°58' W 093°51'0 0.0
2018-Jun-09 18:30N 29°58' W 093°51'0 0.0
2018-Jun-09 18:00N 29°58' W 093°51'0 0.0
2018-Jun-09 17:30N 29°58' W 093°51'0 0.0
2018-Jun-09 17:00N 29°58' W 093°51'0 0.0
2018-Jun-09 16:30N 29°58' W 093°51'0 0.0
2018-Jun-09 16:00N 29°58' W 093°51'0 0.0
2018-Jun-09 15:01N 29°58' W 093°51'1 1.4
2018-Jun-09 14:30N 29°58' W 093°52'1 1.5
2018-Jun-09 14:00N 29°58' W 093°51'0 0.0
2018-Jun-09 13:30N 29°58' W 093°51'0 0.0
2018-Jun-09 13:00N 29°58' W 093°51'0 0.0
2018-Jun-09 12:30N 29°58' W 093°51'  

Dump ship's entire track history